Time;durP1;ratioP1;P1;durP2;ratioP2;P2;SDS_P1;SDS_P2;PMS_P1;PMS_P2;Temp;Humidity;BMP_temperature;BMP_pressure;BME280_temperature;BME280_humidity;BME280_pressure;Samples;Min_cycle;Max_cycle;Signal;HPM_P1;HPM_P2
2023/01/26 00:01:54;;;;;;;49.67;27.30;;;4.60;1.00;;;;;;5033738;28;20199;-56
2023/01/26 00:04:20;;;;;;;38.87;23.53;;;4.60;1.00;;;;;;5040848;28;20685;-57
2023/01/26 00:06:45;;;;;;;44.67;23.67;;;4.70;1.00;;;;;;5043617;28;20452;-55
2023/01/26 00:09:14;;;;;;;37.43;21.63;;;4.60;1.00;;;;;;5047385;28;20456;-58
2023/01/26 00:11:40;;;;;;;41.10;22.97;;;4.50;1.00;;;;;;5048278;28;20660;-57
2023/01/26 00:14:05;;;;;;;41.83;23.70;;;4.30;1.00;;;;;;5041664;28;20499;-57
2023/01/26 00:16:31;;;;;;;38.47;22.77;;;4.20;1.00;;;;;;5046252;28;20548;-55
2023/01/26 00:18:57;;;;;;;43.40;25.00;;;4.20;1.00;;;;;;5038696;28;20249;-56
2023/01/26 00:21:23;;;;;;;41.10;23.43;;;4.20;1.00;;;;;;5047902;28;20275;-55
2023/01/26 00:23:50;;;;;;;37.13;22.63;;;4.30;1.00;;;;;;5047902;28;20674;-58
2023/01/26 00:26:18;;;;;;;42.57;24.33;;;4.30;1.00;;;;;;5048407;28;20510;-57
2023/01/26 00:28:44;;;;;;;38.20;22.77;;;4.40;1.00;;;;;;5039349;28;20503;-56
2023/01/26 00:31:13;;;;;;;38.17;23.20;;;4.40;1.00;;;;;;5034836;28;20472;-57
2023/01/26 00:33:38;;;;;;;40.77;24.07;;;4.50;1.00;;;;;;5036134;28;20192;-56
2023/01/26 00:36:05;;;;;;;43.27;23.80;;;4.70;1.00;;;;;;5037391;28;20441;-57
2023/01/26 00:38:31;;;;;;;41.40;23.23;;;4.70;1.00;;;;;;5034467;28;20306;-55
2023/01/26 00:40:57;;;;;;;39.30;22.23;;;4.70;1.00;;;;;;5035175;28;20544;-56
2023/01/26 00:43:22;;;;;;;39.50;23.60;;;4.60;1.00;;;;;;5034541;28;20516;-55
2023/01/26 00:45:48;;;;;;;37.97;23.27;;;4.60;1.00;;;;;;5033438;28;20280;-56
2023/01/26 00:48:14;;;;;;;35.13;22.67;;;4.60;1.00;;;;;;5036618;28;20205;-56
2023/01/26 00:50:40;;;;;;;40.57;24.10;;;4.70;1.00;;;;;;5042585;28;20628;-56
2023/01/26 00:53:06;;;;;;;41.50;23.60;;;4.50;1.00;;;;;;5043665;28;20550;-57
2023/01/26 00:55:32;;;;;;;53.93;28.97;;;4.60;1.00;;;;;;5039991;28;20188;-56
2023/01/26 00:58:02;;;;;;;47.70;26.23;;;4.50;1.00;;;;;;5046907;28;20883;-56
2023/01/26 01:00:28;;;;;;;56.30;28.37;;;4.50;1.00;;;;;;5034101;28;20795;-56
2023/01/26 01:02:56;;;;;;;50.73;27.73;;;4.50;1.00;;;;;;5045730;28;20467;-56
2023/01/26 01:05:23;;;;;;;43.97;26.27;;;4.50;1.00;;;;;;5033876;28;20813;-55
2023/01/26 01:07:48;;;;;;;49.03;26.20;;;4.40;1.00;;;;;;5034527;28;20446;-57
2023/01/26 01:10:14;;;;;;;45.03;26.03;;;4.40;1.00;;;;;;5034957;28;20502;-56
2023/01/26 01:12:40;;;;;;;46.90;25.50;;;4.40;1.00;;;;;;5035265;28;20249;-55
2023/01/26 01:15:06;;;;;;;53.97;27.63;;;4.40;1.00;;;;;;5037103;28;20467;-55
2023/01/26 01:17:32;;;;;;;47.17;27.30;;;4.40;1.00;;;;;;5038520;28;20184;-55
2023/01/26 01:19:58;;;;;;;49.43;28.40;;;4.50;1.00;;;;;;5035100;28;20450;-56
2023/01/26 01:22:24;;;;;;;49.00;26.80;;;4.60;1.00;;;;;;5035785;28;20974;-55
2023/01/26 01:24:49;;;;;;;54.13;27.20;;;4.60;1.00;;;;;;5034083;28;20641;-56
2023/01/26 01:27:15;;;;;;;54.67;28.30;;;5.00;1.00;;;;;;5036259;28;20184;-55
2023/01/26 01:29:40;;;;;;;52.10;26.40;;;4.50;1.00;;;;;;5035992;28;20272;-56
2023/01/26 01:32:06;;;;;;;52.90;29.20;;;4.50;1.00;;;;;;5035734;28;20210;-56
2023/01/26 01:34:31;;;;;;;52.70;27.33;;;4.30;1.00;;;;;;5039518;28;20202;-55
2023/01/26 01:36:57;;;;;;;62.40;29.47;;;4.20;1.00;;;;;;5033547;28;20197;-55
2023/01/26 01:39:23;;;;;;;62.17;29.33;;;4.20;1.00;;;;;;5044049;28;20687;-55
2023/01/26 01:41:48;;;;;;;57.67;27.13;;;4.20;1.00;;;;;;5047025;28;20592;-55
2023/01/26 01:44:22;;;;;;;58.50;28.87;;;4.10;1.00;;;;;;5048922;28;20277;-55
2023/01/26 01:46:54;;;;;;;52.83;25.73;;;4.10;1.00;;;;;;5049942;28;20235;-55
2023/01/26 01:49:28;;;;;;;58.43;27.57;;;4.10;1.00;;;;;;5042964;28;20475;-55
2023/01/26 01:52:05;;;;;;;54.80;26.87;;;4.00;1.00;;;;;;5046878;28;20513;-56
2023/01/26 01:54:49;;;;;;;66.20;29.13;;;4.00;1.00;;;;;;5048523;28;20809;-54
2023/01/26 01:57:26;;;;;;;57.37;24.93;;;4.00;1.00;;;;;;5044039;28;20572;-55
2023/01/26 01:59:58;;;;;;;55.73;26.13;;;3.90;1.00;;;;;;5041143;28;20443;-54
2023/01/26 02:02:24;;;;;;;50.93;25.20;;;3.90;1.00;;;;;;5041512;28;20729;-56
2023/01/26 02:04:50;;;;;;;54.37;23.73;;;3.90;1.00;;;;;;5047262;28;20499;-56
2023/01/26 02:07:16;;;;;;;56.47;25.13;;;3.90;1.00;;;;;;5045098;28;20452;-55
2023/01/26 02:12:31;;;;;;;51.77;25.03;;;3.90;1.00;;;;;;5045727;28;20295;-56
2023/01/26 02:14:57;;;;;;;59.10;28.40;;;3.90;1.00;;;;;;5039217;28;20440;-57
2023/01/26 02:17:23;;;;;;;62.40;26.10;;;3.80;1.00;;;;;;5045871;28;20437;-56
2023/01/26 02:20:27;;;;;;;53.63;26.30;;;3.90;1.00;;;;;;5036843;28;20444;-56
2023/01/26 02:22:58;;;;;;;57.00;28.03;;;3.90;1.00;;;;;;5034338;28;20447;-56
2023/01/26 02:25:43;;;;;;;56.77;25.83;;;4.00;1.00;;;;;;5034741;28;20595;-56
2023/01/26 02:28:08;;;;;;;59.83;28.93;;;4.10;1.00;;;;;;5035004;28;20449;-56
2023/01/26 02:30:34;;;;;;;64.00;27.97;;;4.00;1.00;;;;;;5032952;28;20463;-56
2023/01/26 02:33:00;;;;;;;59.20;26.83;;;4.10;1.00;;;;;;5031803;28;20505;-57
2023/01/26 02:35:25;;;;;;;53.87;26.80;;;4.20;1.00;;;;;;5038169;28;20482;-56
2023/01/26 02:37:51;;;;;;;67.07;30.17;;;4.20;1.00;;;;;;5046313;28;20451;-56
2023/01/26 02:40:47;;;;;;;53.13;27.47;;;4.30;1.00;;;;;;5047416;28;20301;-56
2023/01/26 02:43:13;;;;;;;56.73;27.23;;;4.30;1.00;;;;;;5044397;28;20232;-56
2023/01/26 02:45:41;;;;;;;49.40;25.47;;;4.00;1.00;;;;;;5047530;28;20495;-57
2023/01/26 02:48:07;;;;;;;55.07;26.97;;;4.30;1.00;;;;;;5049363;28;20582;-56
2023/01/26 02:50:33;;;;;;;51.20;25.70;;;4.30;1.00;;;;;;5046156;28;20440;-56
2023/01/26 02:53:00;;;;;;;49.27;23.57;;;4.30;1.00;;;;;;5049040;28;20522;-56
2023/01/26 02:55:26;;;;;;;48.57;23.10;;;4.30;1.00;;;;;;5044232;28;20540;-55
2023/01/26 02:57:55;;;;;;;49.30;25.20;;;4.20;1.00;;;;;;5046592;28;20444;-56
2023/01/26 03:00:23;;;;;;;54.40;24.60;;;4.10;1.00;;;;;;5045555;28;20468;-56
2023/01/26 03:02:52;;;;;;;51.90;24.50;;;4.00;1.00;;;;;;5044019;28;20455;-56
2023/01/26 03:05:18;;;;;;;54.23;25.40;;;4.00;1.00;;;;;;5035533;28;20839;-56
2023/01/26 03:07:43;;;;;;;51.70;24.80;;;4.00;1.00;;;;;;5032769;28;20500;-55
2023/01/26 03:10:10;;;;;;;47.83;23.23;;;4.10;1.00;;;;;;5032401;28;20447;-56
2023/01/26 03:12:36;;;;;;;49.50;23.50;;;4.00;1.00;;;;;;5033476;28;20211;-56
2023/01/26 03:17:46;;;;;;;50.17;22.37;;;3.90;1.00;;;;;;5044520;28;20960;-56
2023/01/26 03:28:32;;;;;;;48.17;22.07;;;3.70;1.00;;;;;;5042874;28;21513;-56
2023/01/26 03:30:57;;;;;;;47.90;23.23;;;3.80;1.00;;;;;;5045119;28;20873;-55
2023/01/26 03:33:23;;;;;;;52.47;22.27;;;3.90;1.00;;;;;;5037541;28;20186;-56
2023/01/26 03:35:52;;;;;;;59.70;22.73;;;3.80;1.00;;;;;;5044582;28;20187;-56
2023/01/26 03:38:18;;;;;;;47.60;22.90;;;3.80;1.00;;;;;;5044220;28;20270;-57
2023/01/26 03:57:08;;;;;;;61.60;21.90;;;4.10;1.00;;;;;;5050617;28;20460;-55
2023/01/26 03:59:36;;;;;;;46.80;22.00;;;4.00;1.00;;;;;;5048674;28;20452;-56
2023/01/26 04:10:22;;;;;;;52.87;22.90;;;3.80;1.00;;;;;;5046843;28;21928;-55
2023/01/26 04:23:49;;;;;;;42.63;21.93;;;4.30;1.00;;;;;;5046671;28;20531;-56
2023/01/26 04:26:15;;;;;;;43.30;21.13;;;4.30;1.00;;;;;;5044510;28;20953;-56
2023/01/26 04:28:41;;;;;;;45.77;20.07;;;4.20;1.00;;;;;;5047786;28;20550;-56
2023/01/26 04:31:07;;;;;;;36.90;18.90;;;4.20;1.00;;;;;;5035221;28;20468;-55
2023/01/26 04:33:32;;;;;;;40.80;18.53;;;4.20;1.00;;;;;;5040682;28;20201;-56
2023/01/26 04:36:05;;;;;;;36.30;19.07;;;4.20;1.00;;;;;;5034586;28;20562;-57
2023/01/26 04:38:31;;;;;;;38.90;20.07;;;4.20;1.00;;;;;;5035475;28;20192;-55
2023/01/26 04:40:57;;;;;;;46.83;22.13;;;4.20;1.00;;;;;;5035203;28;22137;-55
2023/01/26 04:43:22;;;;;;;48.87;20.03;;;4.20;1.00;;;;;;5033912;28;20201;-56
2023/01/26 04:46:06;;;;;;;43.03;21.10;;;4.10;1.00;;;;;;5036947;28;20208;-58
2023/01/26 04:48:32;;;;;;;35.10;18.37;;;4.10;1.00;;;;;;5032329;28;20211;-56
2023/01/26 04:51:00;;;;;;;36.43;17.87;;;4.10;1.00;;;;;;5036421;28;21049;-56
2023/01/26 04:53:27;;;;;;;40.63;18.70;;;4.10;1.00;;;;;;5033520;28;20455;-56
2023/01/26 04:55:53;;;;;;;36.50;17.87;;;4.10;1.00;;;;;;5036036;28;20449;-56
2023/01/26 04:58:19;;;;;;;32.60;17.07;;;4.00;1.00;;;;;;5033352;28;20582;-55
2023/01/26 05:00:50;;;;;;;34.70;16.97;;;4.00;1.00;;;;;;5034803;28;20453;-55
2023/01/26 05:03:16;;;;;;;36.60;17.33;;;3.90;1.00;;;;;;5034708;28;20486;-56
2023/01/26 05:05:41;;;;;;;46.80;21.77;;;4.00;1.00;;;;;;5034575;28;20540;-55
2023/01/26 05:08:07;;;;;;;36.63;18.67;;;3.90;1.00;;;;;;5035967;28;20190;-55
2023/01/26 05:10:32;;;;;;;37.67;18.40;;;3.80;1.00;;;;;;5035296;28;20201;-56
2023/01/26 05:12:58;;;;;;;39.23;18.23;;;3.80;1.00;;;;;;5034442;28;20788;-56
2023/01/26 05:15:24;;;;;;;37.33;19.00;;;3.80;1.00;;;;;;5034953;28;20225;-55
2023/01/26 05:17:50;;;;;;;37.10;17.90;;;3.90;1.00;;;;;;5035296;28;20453;-55
2023/01/26 05:20:16;;;;;;;40.50;18.93;;;4.00;1.00;;;;;;5037661;28;20554;-56
2023/01/26 05:22:42;;;;;;;35.67;19.23;;;4.00;1.00;;;;;;5034992;28;20924;-55
2023/01/26 05:25:08;;;;;;;40.57;19.60;;;4.00;1.00;;;;;;5034545;28;20500;-55
2023/01/26 05:27:34;;;;;;;45.67;22.90;;;4.00;1.00;;;;;;5033966;28;20721;-55
2023/01/26 05:30:00;;;;;;;41.30;19.00;;;4.10;1.00;;;;;;5034592;28;20460;-55
2023/01/26 05:32:27;;;;;;;38.70;19.77;;;4.30;1.00;;;;;;5046959;28;20354;-56
2023/01/26 05:34:52;;;;;;;38.87;19.90;;;4.20;1.00;;;;;;5042418;28;20185;-56
2023/01/26 05:37:18;;;;;;;44.30;20.70;;;4.20;1.00;;;;;;5045669;28;20451;-56
2023/01/26 05:39:43;;;;;;;50.10;21.60;;;4.20;1.00;;;;;;5045732;28;20190;-55
2023/01/26 05:42:12;;;;;;;47.23;22.00;;;4.30;1.00;;;;;;5048025;28;20195;-55
2023/01/26 05:44:38;;;;;;;48.47;22.67;;;4.20;1.00;;;;;;5046678;28;20330;-55
2023/01/26 05:47:04;;;;;;;48.77;22.33;;;4.10;1.00;;;;;;5057882;28;20927;-55
2023/01/26 05:49:30;;;;;;;48.70;20.83;;;4.20;1.00;;;;;;5043223;28;20484;-57
2023/01/26 05:51:56;;;;;;;39.53;20.17;;;4.20;1.00;;;;;;5045475;28;20222;-56
2023/01/26 05:54:22;;;;;;;38.60;20.57;;;4.20;1.00;;;;;;5048585;28;20458;-55
2023/01/26 05:56:48;;;;;;;45.53;21.67;;;4.30;1.00;;;;;;5046690;28;20446;-55
2023/01/26 05:59:14;;;;;;;40.27;19.20;;;4.20;1.00;;;;;;5046908;28;20229;-56
2023/01/26 06:01:39;;;;;;;42.20;20.10;;;4.10;1.00;;;;;;5041365;28;20185;-56
2023/01/26 06:04:05;;;;;;;41.97;20.60;;;4.00;1.00;;;;;;5043775;28;20602;-56
2023/01/26 06:06:30;;;;;;;48.43;22.77;;;4.10;1.00;;;;;;5046911;28;20253;-55
2023/01/26 06:08:57;;;;;;;43.47;21.47;;;4.00;1.00;;;;;;5045404;28;20196;-56
2023/01/26 06:11:23;;;;;;;45.43;20.00;;;4.00;1.00;;;;;;5048494;28;20735;-56
2023/01/26 06:13:48;;;;;;;40.37;20.80;;;4.00;1.00;;;;;;5044713;28;20452;-57
2023/01/26 06:16:14;;;;;;;56.30;21.83;;;4.10;1.00;;;;;;5048938;28;20208;-56
2023/01/26 06:18:40;;;;;;;44.87;22.90;;;4.10;1.00;;;;;;5046276;28;20312;-56
2023/01/26 06:21:06;;;;;;;41.37;20.63;;;4.30;1.00;;;;;;5044167;28;20443;-56
2023/01/26 06:23:31;;;;;;;42.93;21.13;;;4.40;1.00;;;;;;5040628;28;20197;-55
2023/01/26 06:25:59;;;;;;;44.17;22.67;;;4.40;1.00;;;;;;5043613;28;20195;-57
2023/01/26 06:28:24;;;;;;;46.03;23.43;;;4.30;1.00;;;;;;5050249;28;20683;-56
2023/01/26 06:30:50;;;;;;;47.93;21.40;;;4.40;1.00;;;;;;5043620;28;20466;-56
2023/01/26 06:33:16;;;;;;;43.63;22.83;;;6.70;1.00;;;;;;5046642;28;20658;-57
2023/01/26 06:35:41;;;;;;;45.60;23.47;;;4.20;1.00;;;;;;5044092;28;20179;-56
2023/01/26 06:38:07;;;;;;;52.00;23.60;;;4.10;1.00;;;;;;5039681;28;20187;-56
2023/01/26 06:40:32;;;;;;;46.50;21.57;;;4.20;1.00;;;;;;5042852;28;20213;-56
2023/01/26 06:42:58;;;;;;;49.00;22.20;;;4.20;1.00;;;;;;5049924;28;20174;-57
2023/01/26 06:45:24;;;;;;;54.03;23.27;;;4.10;1.00;;;;;;5048579;28;20188;-57
2023/01/26 06:47:50;;;;;;;66.70;32.37;;;4.20;1.00;;;;;;5049181;28;20269;-57
2023/01/26 06:50:19;;;;;;;55.90;24.90;;;4.20;1.00;;;;;;5049414;28;20193;-56
2023/01/26 06:52:51;;;;;;;43.63;22.60;;;4.30;1.00;;;;;;5049042;28;20836;-57
2023/01/26 06:55:33;;;;;;;51.20;21.90;;;4.30;1.00;;;;;;5049308;28;20437;-56
2023/01/26 06:57:59;;;;;;;45.00;23.17;;;4.20;1.00;;;;;;5048206;28;20450;-56
2023/01/26 07:00:24;;;;;;;41.47;21.17;;;4.20;1.00;;;;;;5052307;28;20774;-56
2023/01/26 07:02:50;;;;;;;40.87;21.40;;;4.20;1.00;;;;;;5052698;28;20236;-56
2023/01/26 07:05:16;;;;;;;43.93;23.27;;;4.20;1.00;;;;;;5048401;28;20186;-55
2023/01/26 07:07:41;;;;;;;43.50;23.50;;;4.10;1.00;;;;;;5048227;28;20197;-56
2023/01/26 07:10:08;;;;;;;43.77;22.83;;;4.10;1.00;;;;;;5048980;28;20264;-56
2023/01/26 07:12:38;;;;;;;50.17;23.80;;;4.00;1.00;;;;;;5047422;28;20273;-56
2023/01/26 07:15:04;;;;;;;49.83;25.10;;;4.10;1.00;;;;;;5047833;28;20514;-58
2023/01/26 07:17:30;;;;;;;44.60;21.90;;;4.20;1.00;;;;;;5045365;28;20477;-55
2023/01/26 07:19:56;;;;;;;43.83;24.77;;;4.30;1.00;;;;;;5048777;28;20472;-56
2023/01/26 07:22:21;;;;;;;47.80;23.17;;;4.40;1.00;;;;;;5048737;28;20520;-57
2023/01/26 07:24:47;;;;;;;42.17;23.87;;;4.40;1.00;;;;;;5047035;28;20197;-57
2023/01/26 07:27:13;;;;;;;42.03;23.10;;;4.30;1.00;;;;;;5050877;28;20195;-57
2023/01/26 07:29:38;;;;;;;44.63;21.10;;;3.50;1.00;;;;;;5046957;28;20210;-58
2023/01/26 07:32:04;;;;;;;45.97;25.60;;;4.40;1.00;;;;;;5052516;28;20217;-56
2023/01/26 07:34:29;;;;;;;47.40;23.90;;;4.30;1.00;;;;;;5048057;28;20194;-56
2023/01/26 07:36:55;;;;;;;44.47;25.33;;;4.20;1.00;;;;;;5050223;28;20265;-56
2023/01/26 07:39:20;;;;;;;44.43;24.43;;;4.30;1.00;;;;;;5050601;28;20190;-56
2023/01/26 07:41:47;;;;;;;51.60;24.43;;;4.20;1.00;;;;;;5051422;28;20261;-57
2023/01/26 07:44:13;;;;;;;39.00;23.87;;;4.40;1.00;;;;;;5048195;28;20195;-56
2023/01/26 07:46:40;;;;;;;43.27;23.53;;;4.50;1.00;;;;;;5049981;28;20499;-55
2023/01/26 07:49:06;;;;;;;40.03;24.27;;;4.40;1.00;;;;;;5046052;28;20186;-57
2023/01/26 07:51:32;;;;;;;42.57;23.70;;;4.30;1.00;;;;;;5052055;28;20469;-56
2023/01/26 07:53:58;;;;;;;41.03;23.70;;;4.20;1.00;;;;;;5049120;28;20441;-55
2023/01/26 07:56:24;;;;;;;44.10;23.50;;;4.20;1.00;;;;;;5049844;28;20439;-57
2023/01/26 07:58:53;;;;;;;42.53;22.23;;;4.30;1.00;;;;;;5050131;28;20449;-56
2023/01/26 08:01:19;;;;;;;38.90;22.40;;;4.20;1.00;;;;;;5052341;28;20198;-56
2023/01/26 08:03:48;;;;;;;37.23;23.30;;;4.20;1.00;;;;;;5045940;28;20451;-57
2023/01/26 08:06:14;;;;;;;58.00;26.17;;;4.20;1.00;;;;;;5051356;28;20441;-57
2023/01/26 08:08:40;;;;;;;44.40;25.67;;;4.20;1.00;;;;;;5048294;28;20511;-57
2023/01/26 08:11:06;;;;;;;41.13;25.43;;;4.20;1.00;;;;;;5056257;28;20553;-56
2023/01/26 08:13:31;;;;;;;46.33;23.67;;;4.30;1.00;;;;;;5054383;28;20447;-57
2023/01/26 08:16:05;;;;;;;39.20;22.77;;;4.40;1.00;;;;;;5052977;28;20432;-56
2023/01/26 08:18:31;;;;;;;37.70;22.10;;;4.60;1.00;;;;;;5065080;28;20535;-56
2023/01/26 08:20:57;;;;;;;47.10;25.40;;;4.70;1.00;;;;;;5052226;28;20432;-56
2023/01/26 08:23:23;;;;;;;42.80;24.27;;;4.70;1.00;;;;;;5049309;28;20453;-57
2023/01/26 08:25:49;;;;;;;40.70;23.27;;;4.70;1.00;;;;;;5051154;28;20833;-58
2023/01/26 08:28:14;;;;;;;45.77;23.87;;;4.70;1.00;;;;;;5047834;28;20187;-58
2023/01/26 08:30:40;;;;;;;36.67;23.23;;;4.70;1.00;;;;;;5051043;28;20560;-57
2023/01/26 08:33:06;;;;;;;38.73;23.50;;;4.60;1.00;;;;;;5050918;28;20183;-57
2023/01/26 08:35:32;;;;;;;50.80;23.90;;;4.50;1.00;;;;;;5049581;28;20779;-57
2023/01/26 08:37:58;;;;;;;44.50;24.67;;;4.30;1.00;;;;;;5049787;28;20478;-57
2023/01/26 08:40:25;;;;;;;41.43;22.87;;;4.40;1.00;;;;;;5050563;28;20502;-57
2023/01/26 08:42:51;;;;;;;34.07;19.80;;;4.50;1.00;;;;;;5048384;28;20277;-56
2023/01/26 08:45:17;;;;;;;43.70;22.47;;;4.40;1.00;;;;;;5056051;28;20484;-57
2023/01/26 08:47:44;;;;;;;41.00;22.73;;;4.40;1.00;;;;;;5048964;28;20459;-58
2023/01/26 08:50:10;;;;;;;43.23;23.40;;;4.40;1.00;;;;;;5051218;28;20444;-56
2023/01/26 08:52:35;;;;;;;43.80;24.47;;;4.30;1.00;;;;;;5048855;28;21023;-57
2023/01/26 08:55:03;;;;;;;45.00;24.40;;;4.30;1.00;;;;;;5048835;28;20448;-57
2023/01/26 08:57:29;;;;;;;44.73;23.70;;;4.20;1.00;;;;;;5046043;28;20185;-58
2023/01/26 08:59:54;;;;;;;46.30;24.47;;;4.20;1.00;;;;;;5051156;28;20490;-56
2023/01/26 09:02:20;;;;;;;44.73;23.80;;;4.30;1.00;;;;;;5048154;28;20192;-58
2023/01/26 09:04:46;;;;;;;45.50;23.20;;;4.20;1.00;;;;;;5049998;28;20198;-65
2023/01/26 09:07:11;;;;;;;41.40;24.40;;;4.10;1.00;;;;;;5050781;28;20194;-66
2023/01/26 09:09:37;;;;;;;39.00;22.23;;;4.10;1.00;;;;;;5049117;28;20637;-65
2023/01/26 09:12:03;;;;;;;45.43;23.23;;;4.10;1.00;;;;;;5048982;28;20728;-65
2023/01/26 09:14:29;;;;;;;44.70;24.93;;;4.20;1.00;;;;;;5063549;28;20204;-66
2023/01/26 09:16:54;;;;;;;44.33;25.83;;;4.20;1.00;;;;;;5065171;28;20559;-64
2023/01/26 09:19:20;;;;;;;46.17;25.27;;;4.20;1.00;;;;;;5062509;28;20237;-65
2023/01/26 09:21:46;;;;;;;49.43;26.70;;;4.20;1.00;;;;;;5054085;28;20187;-66
2023/01/26 09:24:11;;;;;;;47.53;24.10;;;4.20;1.00;;;;;;5050933;28;20193;-65
2023/01/26 09:26:37;;;;;;;54.17;25.90;;;4.20;1.00;;;;;;5065898;28;20417;-66
2023/01/26 09:29:03;;;;;;;42.03;23.57;;;4.00;1.00;;;;;;5051178;28;20186;-65
2023/01/26 09:31:29;;;;;;;47.67;23.37;;;4.00;1.00;;;;;;5054279;28;20470;-65
2023/01/26 09:33:54;;;;;;;39.87;21.80;;;4.20;1.00;;;;;;5061832;28;20527;-66
2023/01/26 09:36:20;;;;;;;42.00;20.53;;;4.30;1.00;;;;;;5058133;28;20197;-64
2023/01/26 09:38:45;;;;;;;44.20;21.23;;;4.30;1.00;;;;;;5053542;28;20705;-65
2023/01/26 09:41:23;;;;;;;34.70;18.50;;;4.20;1.00;;;;;;5050415;28;20281;-65
2023/01/26 09:43:56;;;;;;;39.33;21.13;;;4.20;1.00;;;;;;5059114;28;20182;-65
2023/01/26 09:46:44;;;;;;;38.00;21.27;;;4.10;1.00;;;;;;5050253;28;20810;-65
2023/01/26 09:49:27;;;;;;;42.20;22.27;;;4.20;1.00;;;;;;5054877;28;20479;-65
2023/01/26 09:52:05;;;;;;;39.87;20.60;;;4.20;1.00;;;;;;5055696;28;20511;-66
2023/01/26 09:54:48;;;;;;;46.70;22.60;;;4.30;1.00;;;;;;5070300;28;20432;-65
2023/01/26 09:57:19;;;;;;;40.10;20.30;;;4.40;1.00;;;;;;5054735;28;20485;-66
2023/01/26 09:59:58;;;;;;;39.40;22.07;;;4.50;1.00;;;;;;5047921;28;20495;-67
2023/01/26 10:03:02;;;;;;;37.70;21.03;;;4.30;1.00;;;;;;5050061;28;20472;-64
2023/01/26 10:05:32;;;;;;;38.90;19.90;;;4.10;1.00;;;;;;5049241;28;20444;-66
2023/01/26 10:07:58;;;;;;;48.80;22.80;;;4.00;1.00;;;;;;5066241;28;21212;-63
2023/01/26 10:10:35;;;;;;;41.13;22.87;;;4.10;1.00;;;;;;5060545;28;20452;-65
2023/01/26 10:13:01;;;;;;;36.23;20.53;;;4.30;1.00;;;;;;5062001;28;20218;-64
2023/01/26 10:15:29;;;;;;;38.50;19.10;;;4.50;1.00;;;;;;5057917;28;20440;-65
2023/01/26 10:17:56;;;;;;;36.00;19.23;;;4.30;1.00;;;;;;5048841;28;20489;-65
2023/01/26 10:20:40;;;;;;;38.70;20.07;;;4.30;1.00;;;;;;5054692;28;20924;-65
2023/01/26 10:23:17;;;;;;;40.53;20.67;;;4.20;1.00;;;;;;5054136;28;20436;-65
2023/01/26 10:25:45;;;;;;;39.83;19.93;;;4.20;1.00;;;;;;5068389;28;20445;-65
2023/01/26 10:28:26;;;;;;;36.70;19.70;;;4.30;1.00;;;;;;5068983;28;20493;-64
2023/01/26 10:30:52;;;;;;;43.80;21.30;;;4.40;1.00;;;;;;5057000;28;20452;-65
2023/01/26 10:33:26;;;;;;;39.27;21.93;;;4.40;1.00;;;;;;5048579;28;20448;-64
2023/01/26 10:35:52;;;;;;;36.33;20.10;;;4.20;1.00;;;;;;5057718;28;20433;-64
2023/01/26 10:38:27;;;;;;;44.00;22.67;;;4.20;1.00;;;;;;5051709;28;20602;-65
2023/01/26 10:40:53;;;;;;;44.63;22.73;;;4.10;1.00;;;;;;5049808;28;20436;-66
2023/01/26 10:43:19;;;;;;;36.47;20.30;;;4.00;1.00;;;;;;5061480;28;20471;-64
2023/01/26 10:45:46;;;;;;;42.93;20.30;;;4.00;1.00;;;;;;5061957;28;20503;-65
2023/01/26 10:48:19;;;;;;;41.53;21.60;;;3.90;1.00;;;;;;5046707;28;20220;-65
2023/01/26 10:50:46;;;;;;;35.07;20.23;;;3.90;1.00;;;;;;5050706;28;20444;-65
2023/01/26 10:53:24;;;;;;;42.83;23.47;;;3.90;1.00;;;;;;5069457;28;20439;-64
2023/01/26 10:56:02;;;;;;;42.20;21.30;;;3.80;1.00;;;;;;5050448;28;20439;-65
2023/01/26 10:58:53;;;;;;;39.07;20.77;;;3.80;1.00;;;;;;5065764;28;20813;-65
2023/01/26 11:01:21;;;;;;;41.77;21.30;;;3.80;1.00;;;;;;5049208;28;20533;-65
2023/01/26 11:04:10;;;;;;;40.17;22.30;;;3.80;1.00;;;;;;5048662;28;20444;-65
2023/01/26 11:06:37;;;;;;;45.37;21.50;;;3.80;1.00;;;;;;5049798;28;20559;-65
2023/01/26 11:09:17;;;;;;;45.13;22.23;;;3.80;1.00;;;;;;5048799;28;20455;-65
2023/01/26 11:11:54;;;;;;;48.27;22.53;;;3.80;1.00;;;;;;5050684;28;20537;-65
2023/01/26 11:14:20;;;;;;;48.33;23.67;;;3.90;1.00;;;;;;5054046;28;20509;-65
2023/01/26 11:17:24;;;;;;;35.87;19.73;;;3.80;1.00;;;;;;5049750;28;20448;-65
2023/01/26 11:19:58;;;;;;;42.03;19.37;;;3.80;1.00;;;;;;5063060;28;20184;-64
2023/01/26 11:22:36;;;;;;;42.57;21.20;;;3.80;1.00;;;;;;5060735;28;20441;-65
2023/01/26 11:25:16;;;;;;;41.07;21.70;;;3.90;1.00;;;;;;5048872;28;20458;-65
2023/01/26 11:28:06;;;;;;;36.60;20.30;;;3.70;1.00;;;;;;5052087;28;20960;-65
2023/01/26 11:30:52;;;;;;;41.53;20.97;;;3.70;1.00;;;;;;5059678;28;20427;-65
2023/01/26 11:33:42;;;;;;;33.40;17.63;;;3.70;1.00;;;;;;5048828;28;20453;-65
2023/01/26 11:36:16;;;;;;;33.77;19.23;;;3.70;1.00;;;;;;5048594;28;20459;-64
2023/01/26 11:38:46;;;;;;;38.37;21.13;;;3.90;1.00;;;;;;5056029;28;20478;-64
2023/01/26 11:41:33;;;;;;;30.27;18.50;;;3.90;1.00;;;;;;5062297;28;21053;-65
2023/01/26 11:44:26;;;;;;;36.43;20.30;;;4.00;1.00;;;;;;5061429;28;20645;-65
2023/01/26 11:46:58;;;;;;;34.00;19.20;;;4.00;1.00;;;;;;5065461;28;20578;-64
2023/01/26 11:50:08;;;;;;;36.93;20.47;;;3.90;1.00;;;;;;5050581;28;20557;-65
2023/01/26 11:52:56;;;;;;;35.20;20.93;;;4.00;1.00;;;;;;5061876;28;20472;-63
2023/01/26 11:55:35;;;;;;;35.27;19.47;;;4.00;1.00;;;;;;5064701;28;20431;-64
2023/01/26 11:58:04;;;;;;;28.63;18.57;;;3.90;1.00;;;;;;5049877;28;20851;-65
2023/01/26 12:00:42;;;;;;;38.20;19.70;;;3.70;1.00;;;;;;5049918;28;20436;-65
2023/01/26 12:03:44;;;;;;;33.53;19.47;;;3.70;1.00;;;;;;5053715;28;20924;-65
2023/01/26 12:06:37;;;;;;;33.97;19.10;;;3.70;1.00;;;;;;5055253;28;20444;-64
2023/01/26 12:09:31;;;;;;;30.27;17.27;;;3.80;1.00;;;;;;5065228;28;20440;-63
2023/01/26 12:12:11;;;;;;;40.50;21.10;;;3.70;1.00;;;;;;5051829;28;20483;-65
2023/01/26 12:14:49;;;;;;;36.07;18.10;;;3.60;1.00;;;;;;5049958;28;20428;-64
2023/01/26 12:18:08;;;;;;;35.30;16.60;;;3.60;1.00;;;;;;5052114;28;20442;-65
2023/01/26 12:20:45;;;;;;;34.73;17.70;;;3.60;1.00;;;;;;5050434;28;20847;-65
2023/01/26 12:23:37;;;;;;;33.63;18.43;;;3.50;1.00;;;;;;5052116;28;20437;-64
2023/01/26 12:26:09;;;;;;;27.70;17.07;;;3.50;1.00;;;;;;5051770;28;20448;-64
2023/01/26 12:28:34;;;;;;;36.53;18.30;;;3.50;1.00;;;;;;5053311;28;20436;-65
2023/01/26 12:31:32;;;;;;;33.97;19.20;;;3.50;1.00;;;;;;5050327;28;20470;-64
2023/01/26 12:33:58;;;;;;;31.60;17.77;;;3.70;1.00;;;;;;5052377;28;20289;-64
2023/01/26 12:36:39;;;;;;;31.13;17.60;;;3.80;1.00;;;;;;5049997;28;20456;-64
2023/01/26 12:39:07;;;;;;;24.27;14.70;;;3.70;1.00;;;;;;5051119;28;20779;-64
2023/01/26 12:41:57;;;;;;;30.37;17.20;;;3.60;1.00;;;;;;5049020;28;20453;-66
2023/01/26 12:44:38;;;;;;;30.37;17.70;;;3.70;1.00;;;;;;5051805;28;20941;-64
2023/01/26 12:47:09;;;;;;;29.37;16.47;;;3.70;1.00;;;;;;5051183;28;20922;-65
2023/01/26 12:49:47;;;;;;;29.00;16.80;;;3.70;1.00;;;;;;5051691;28;20506;-65
2023/01/26 12:52:34;;;;;;;33.27;17.17;;;3.80;1.00;;;;;;5051237;28;20533;-64
2023/01/26 12:55:32;;;;;;;26.60;16.07;;;3.80;1.00;;;;;;5028079;28;20802;-64
2023/01/26 12:58:25;;;;;;;29.40;16.40;;;3.70;1.00;;;;;;5042269;28;20436;-64
2023/01/26 13:00:59;;;;;;;30.03;16.00;;;3.60;1.00;;;;;;5046810;28;20440;-65
2023/01/26 13:03:31;;;;;;;33.33;16.27;;;3.70;1.00;;;;;;5060963;28;20435;-65
2023/01/26 13:06:08;;;;;;;32.47;16.27;;;3.70;1.00;;;;;;5071463;28;20444;-65
2023/01/26 13:08:34;;;;;;;24.13;14.87;;;3.70;1.00;;;;;;5070806;28;20520;-64
2023/01/26 13:11:05;;;;;;;26.10;15.63;;;3.70;1.00;;;;;;5054180;28;20992;-65
2023/01/26 13:13:32;;;;;;;28.30;16.00;;;4.50;1.00;;;;;;5071046;28;20542;-67
2023/01/26 13:16:16;;;;;;;29.30;15.27;;;3.60;1.00;;;;;;5049484;28;20497;-66
2023/01/26 13:18:52;;;;;;;23.30;14.10;;;3.70;1.00;;;;;;5048826;28;20447;-64
2023/01/26 13:21:48;;;;;;;22.20;13.27;;;3.80;1.00;;;;;;5050660;28;20435;-66
2023/01/26 13:24:16;;;;;;;23.90;15.10;;;3.80;1.00;;;;;;5050726;28;20793;-65
2023/01/26 13:26:47;;;;;;;26.60;14.40;;;3.90;1.00;;;;;;5050946;28;20768;-66
2023/01/26 13:29:30;;;;;;;24.63;15.17;;;3.80;1.00;;;;;;5050852;28;20434;-65
2023/01/26 13:32:20;;;;;;;31.40;14.30;;;3.80;1.00;;;;;;5047578;28;20555;-66
2023/01/26 13:34:56;;;;;;;27.43;14.70;;;3.90;1.00;;;;;;5039506;28;20434;-65
2023/01/26 13:37:51;;;;;;;24.90;14.33;;;3.90;1.00;;;;;;5050932;28;20443;-64
2023/01/26 13:40:23;;;;;;;22.17;13.50;;;3.80;1.00;;;;;;5048900;28;21013;-65
2023/01/26 13:43:20;;;;;;;23.77;13.53;;;3.60;1.00;;;;;;5050451;28;20443;-64
2023/01/26 13:45:57;;;;;;;26.70;14.00;;;3.40;1.00;;;;;;5050532;28;20490;-65
2023/01/26 13:48:39;;;;;;;29.00;15.57;;;3.30;1.00;;;;;;5051969;28;20441;-65
2023/01/26 13:51:07;;;;;;;28.57;15.00;;;3.40;1.00;;;;;;5050300;28;20461;-65
2023/01/26 13:53:42;;;;;;;22.03;13.70;;;3.40;1.00;;;;;;5049511;28;20451;-65
2023/01/26 13:56:29;;;;;;;26.43;14.17;;;3.30;1.00;;;;;;5050349;28;20953;-65